sensor_id;sensor_type;location;lat;lon;timestamp;P1;durP1;ratioP1;P2;durP2;ratioP2
78027;SDS011;74605;45.864;11.474;2024-03-08T00:00:15;11.30;;;5.60;;
78027;SDS011;74605;45.864;11.474;2024-03-08T00:02:45;12.20;;;5.53;;
78027;SDS011;74605;45.864;11.474;2024-03-08T00:05:12;12.52;;;5.95;;
78027;SDS011;74605;45.864;11.474;2024-03-08T00:07:40;12.20;;;5.50;;
78027;SDS011;74605;45.864;11.474;2024-03-08T00:10:07;12.00;;;5.50;;
78027;SDS011;74605;45.864;11.474;2024-03-08T00:12:36;12.27;;;5.72;;
78027;SDS011;74605;45.864;11.474;2024-03-08T00:15:09;10.63;;;5.17;;
78027;SDS011;74605;45.864;11.474;2024-03-08T00:17:39;9.70;;;4.40;;
78027;SDS011;74605;45.864;11.474;2024-03-08T00:20:06;10.98;;;5.50;;
78027;SDS011;74605;45.864;11.474;2024-03-08T00:22:35;12.50;;;5.55;;
78027;SDS011;74605;45.864;11.474;2024-03-08T00:25:02;12.20;;;5.30;;
78027;SDS011;74605;45.864;11.474;2024-03-08T00:27:29;12.20;;;5.03;;
78027;SDS011;74605;45.864;11.474;2024-03-08T00:29:58;11.25;;;5.50;;
78027;SDS011;74605;45.864;11.474;2024-03-08T00:32:25;11.63;;;5.00;;
78027;SDS011;74605;45.864;11.474;2024-03-08T00:34:55;11.50;;;4.85;;
78027;SDS011;74605;45.864;11.474;2024-03-08T00:37:21;13.18;;;5.55;;
78027;SDS011;74605;45.864;11.474;2024-03-08T00:39:50;11.23;;;5.20;;
78027;SDS011;74605;45.864;11.474;2024-03-08T00:42:16;10.43;;;5.10;;
78027;SDS011;74605;45.864;11.474;2024-03-08T00:44:43;11.38;;;5.00;;
78027;SDS011;74605;45.864;11.474;2024-03-08T00:47:10;10.07;;;4.40;;
78027;SDS011;74605;45.864;11.474;2024-03-08T00:49:36;10.18;;;4.70;;
78027;SDS011;74605;45.864;11.474;2024-03-08T00:52:03;14.03;;;5.17;;
78027;SDS011;74605;45.864;11.474;2024-03-08T00:54:33;11.90;;;5.13;;
78027;SDS011;74605;45.864;11.474;2024-03-08T00:57:01;10.60;;;5.07;;
78027;SDS011;74605;45.864;11.474;2024-03-08T00:59:28;11.60;;;5.13;;
78027;SDS011;74605;45.864;11.474;2024-03-08T01:01:54;12.52;;;5.32;;
78027;SDS011;74605;45.864;11.474;2024-03-08T01:04:21;10.27;;;4.90;;
78027;SDS011;74605;45.864;11.474;2024-03-08T01:06:48;11.27;;;5.03;;
78027;SDS011;74605;45.864;11.474;2024-03-08T01:09:14;12.93;;;5.15;;
78027;SDS011;74605;45.864;11.474;2024-03-08T01:11:42;11.05;;;4.90;;
78027;SDS011;74605;45.864;11.474;2024-03-08T01:14:09;10.50;;;5.13;;
78027;SDS011;74605;45.864;11.474;2024-03-08T01:16:35;14.68;;;5.00;;
78027;SDS011;74605;45.864;11.474;2024-03-08T01:19:00;11.82;;;5.53;;
78027;SDS011;74605;45.864;11.474;2024-03-08T01:21:28;9.32;;;4.70;;
78027;SDS011;74605;45.864;11.474;2024-03-08T01:23:54;10.93;;;5.30;;
78027;SDS011;74605;45.864;11.474;2024-03-08T01:26:20;9.90;;;4.82;;
78027;SDS011;74605;45.864;11.474;2024-03-08T01:28:46;11.75;;;5.00;;
78027;SDS011;74605;45.864;11.474;2024-03-08T01:31:13;12.73;;;5.37;;
78027;SDS011;74605;45.864;11.474;2024-03-08T01:33:39;10.77;;;5.40;;
78027;SDS011;74605;45.864;11.474;2024-03-08T01:36:05;10.77;;;5.00;;
78027;SDS011;74605;45.864;11.474;2024-03-08T01:38:31;11.90;;;5.03;;
78027;SDS011;74605;45.864;11.474;2024-03-08T01:40:58;12.48;;;5.47;;
78027;SDS011;74605;45.864;11.474;2024-03-08T01:43:25;11.03;;;5.00;;
78027;SDS011;74605;45.864;11.474;2024-03-08T01:45:54;13.10;;;5.28;;
78027;SDS011;74605;45.864;11.474;2024-03-08T01:48:21;11.60;;;5.28;;
78027;SDS011;74605;45.864;11.474;2024-03-08T01:50:49;12.35;;;5.47;;
78027;SDS011;74605;45.864;11.474;2024-03-08T01:53:17;12.38;;;4.90;;
78027;SDS011;74605;45.864;11.474;2024-03-08T01:55:47;12.27;;;5.37;;
78027;SDS011;74605;45.864;11.474;2024-03-08T01:58:14;11.52;;;4.90;;
78027;SDS011;74605;45.864;11.474;2024-03-08T02:00:44;9.80;;;4.60;;
78027;SDS011;74605;45.864;11.474;2024-03-08T02:03:11;10.32;;;4.50;;
78027;SDS011;74605;45.864;11.474;2024-03-08T02:05:38;11.50;;;5.35;;
78027;SDS011;74605;45.864;11.474;2024-03-08T02:08:06;10.60;;;4.80;;
78027;SDS011;74605;45.864;11.474;2024-03-08T02:10:38;10.77;;;4.93;;
78027;SDS011;74605;45.864;11.474;2024-03-08T02:13:04;10.48;;;4.43;;
78027;SDS011;74605;45.864;11.474;2024-03-08T02:18:18;14.07;;;5.73;;
78027;SDS011;74605;45.864;11.474;2024-03-08T02:20:48;12.70;;;5.03;;
78027;SDS011;74605;45.864;11.474;2024-03-08T02:23:14;12.27;;;4.78;;
78027;SDS011;74605;45.864;11.474;2024-03-08T02:25:40;11.55;;;4.60;;
78027;SDS011;74605;45.864;11.474;2024-03-08T02:28:10;12.43;;;4.68;;
78027;SDS011;74605;45.864;11.474;2024-03-08T02:30:37;11.83;;;4.40;;
78027;SDS011;74605;45.864;11.474;2024-03-08T02:33:04;9.38;;;4.20;;
78027;SDS011;74605;45.864;11.474;2024-03-08T02:35:30;9.43;;;4.32;;
78027;SDS011;74605;45.864;11.474;2024-03-08T02:37:56;11.10;;;4.18;;
78027;SDS011;74605;45.864;11.474;2024-03-08T02:40:23;8.98;;;4.18;;
78027;SDS011;74605;45.864;11.474;2024-03-08T02:42:49;8.90;;;4.47;;
78027;SDS011;74605;45.864;11.474;2024-03-08T02:45:15;8.73;;;4.05;;
78027;SDS011;74605;45.864;11.474;2024-03-08T02:47:41;10.35;;;4.18;;
78027;SDS011;74605;45.864;11.474;2024-03-08T02:50:07;10.20;;;4.00;;
78027;SDS011;74605;45.864;11.474;2024-03-08T02:52:34;11.82;;;4.50;;
78027;SDS011;74605;45.864;11.474;2024-03-08T02:55:00;9.82;;;3.97;;
78027;SDS011;74605;45.864;11.474;2024-03-08T02:57:31;8.15;;;3.72;;
78027;SDS011;74605;45.864;11.474;2024-03-08T02:59:57;8.18;;;3.85;;
78027;SDS011;74605;45.864;11.474;2024-03-08T03:02:24;7.37;;;3.40;;
78027;SDS011;74605;45.864;11.474;2024-03-08T03:04:52;8.85;;;3.47;;
78027;SDS011;74605;45.864;11.474;2024-03-08T03:07:18;8.05;;;3.78;;
78027;SDS011;74605;45.864;11.474;2024-03-08T03:09:44;9.52;;;4.20;;
78027;SDS011;74605;45.864;11.474;2024-03-08T03:12:10;7.40;;;3.17;;
78027;SDS011;74605;45.864;11.474;2024-03-08T03:14:36;7.82;;;3.38;;
78027;SDS011;74605;45.864;11.474;2024-03-08T03:17:05;7.70;;;2.95;;
78027;SDS011;74605;45.864;11.474;2024-03-08T03:19:31;7.30;;;2.97;;
78027;SDS011;74605;45.864;11.474;2024-03-08T03:21:57;8.00;;;4.00;;
78027;SDS011;74605;45.864;11.474;2024-03-08T03:24:23;6.68;;;2.90;;
78027;SDS011;74605;45.864;11.474;2024-03-08T03:26:49;10.18;;;4.47;;
78027;SDS011;74605;45.864;11.474;2024-03-08T03:29:15;10.37;;;5.10;;
78027;SDS011;74605;45.864;11.474;2024-03-08T03:31:42;11.00;;;4.57;;
78027;SDS011;74605;45.864;11.474;2024-03-08T03:34:12;10.50;;;4.30;;
78027;SDS011;74605;45.864;11.474;2024-03-08T03:36:38;11.63;;;4.70;;
78027;SDS011;74605;45.864;11.474;2024-03-08T03:39:08;9.23;;;3.75;;
78027;SDS011;74605;45.864;11.474;2024-03-08T03:41:38;12.33;;;4.67;;
78027;SDS011;74605;45.864;11.474;2024-03-08T03:44:08;10.13;;;4.53;;
78027;SDS011;74605;45.864;11.474;2024-03-08T03:46:35;9.93;;;4.68;;
78027;SDS011;74605;45.864;11.474;2024-03-08T03:49:00;14.10;;;5.22;;
78027;SDS011;74605;45.864;11.474;2024-03-08T03:51:26;11.30;;;5.10;;
78027;SDS011;74605;45.864;11.474;2024-03-08T03:53:54;11.57;;;4.70;;
78027;SDS011;74605;45.864;11.474;2024-03-08T03:56:25;10.57;;;4.63;;
78027;SDS011;74605;45.864;11.474;2024-03-08T03:58:52;10.15;;;4.28;;
78027;SDS011;74605;45.864;11.474;2024-03-08T04:01:18;12.70;;;5.13;;
78027;SDS011;74605;45.864;11.474;2024-03-08T04:03:45;12.02;;;5.07;;
78027;SDS011;74605;45.864;11.474;2024-03-08T04:06:11;10.48;;;4.65;;
78027;SDS011;74605;45.864;11.474;2024-03-08T04:08:37;10.68;;;5.32;;
78027;SDS011;74605;45.864;11.474;2024-03-08T04:11:02;13.43;;;5.47;;
78027;SDS011;74605;45.864;11.474;2024-03-08T04:13:28;10.63;;;4.93;;
78027;SDS011;74605;45.864;11.474;2024-03-08T04:15:54;12.23;;;5.05;;
78027;SDS011;74605;45.864;11.474;2024-03-08T04:18:20;11.17;;;4.87;;
78027;SDS011;74605;45.864;11.474;2024-03-08T04:20:46;9.93;;;4.47;;
78027;SDS011;74605;45.864;11.474;2024-03-08T04:23:12;11.60;;;5.28;;
78027;SDS011;74605;45.864;11.474;2024-03-08T04:25:38;10.70;;;5.45;;
78027;SDS011;74605;45.864;11.474;2024-03-08T04:28:04;11.35;;;5.22;;
78027;SDS011;74605;45.864;11.474;2024-03-08T04:30:30;10.82;;;5.03;;
78027;SDS011;74605;45.864;11.474;2024-03-08T04:32:56;10.37;;;4.70;;
78027;SDS011;74605;45.864;11.474;2024-03-08T04:35:22;12.25;;;4.78;;
78027;SDS011;74605;45.864;11.474;2024-03-08T04:37:48;12.35;;;5.25;;
78027;SDS011;74605;45.864;11.474;2024-03-08T04:40:14;12.47;;;5.50;;
78027;SDS011;74605;45.864;11.474;2024-03-08T04:42:39;12.00;;;5.32;;
78027;SDS011;74605;45.864;11.474;2024-03-08T04:45:08;9.77;;;4.78;;
78027;SDS011;74605;45.864;11.474;2024-03-08T04:47:36;10.40;;;4.63;;
78027;SDS011;74605;45.864;11.474;2024-03-08T04:50:02;10.37;;;4.43;;
78027;SDS011;74605;45.864;11.474;2024-03-08T04:52:29;8.55;;;4.00;;
78027;SDS011;74605;45.864;11.474;2024-03-08T04:54:55;9.35;;;4.53;;
78027;SDS011;74605;45.864;11.474;2024-03-08T04:57:21;10.15;;;4.40;;
78027;SDS011;74605;45.864;11.474;2024-03-08T04:59:47;11.77;;;4.80;;
78027;SDS011;74605;45.864;11.474;2024-03-08T05:02:13;10.07;;;4.30;;
78027;SDS011;74605;45.864;11.474;2024-03-08T05:04:39;11.25;;;4.97;;
78027;SDS011;74605;45.864;11.474;2024-03-08T05:07:05;9.23;;;3.93;;
78027;SDS011;74605;45.864;11.474;2024-03-08T05:09:32;8.18;;;3.40;;
78027;SDS011;74605;45.864;11.474;2024-03-08T05:11:58;10.30;;;4.07;;
78027;SDS011;74605;45.864;11.474;2024-03-08T05:14:25;8.18;;;3.30;;
78027;SDS011;74605;45.864;11.474;2024-03-08T05:16:51;6.50;;;2.80;;
78027;SDS011;74605;45.864;11.474;2024-03-08T05:19:17;7.73;;;3.03;;
78027;SDS011;74605;45.864;11.474;2024-03-08T05:21:44;8.82;;;3.55;;
78027;SDS011;74605;45.864;11.474;2024-03-08T05:24:10;7.85;;;2.83;;
78027;SDS011;74605;45.864;11.474;2024-03-08T05:26:36;9.68;;;4.55;;
78027;SDS011;74605;45.864;11.474;2024-03-08T05:29:05;10.10;;;4.40;;
78027;SDS011;74605;45.864;11.474;2024-03-08T05:31:35;10.45;;;5.20;;
78027;SDS011;74605;45.864;11.474;2024-03-08T05:34:12;7.75;;;3.35;;
78027;SDS011;74605;45.864;11.474;2024-03-08T05:36:40;6.20;;;2.40;;
78027;SDS011;74605;45.864;11.474;2024-03-08T05:39:08;6.10;;;2.67;;
78027;SDS011;74605;45.864;11.474;2024-03-08T05:41:37;6.07;;;2.50;;
78027;SDS011;74605;45.864;11.474;2024-03-08T05:44:13;6.75;;;2.65;;
78027;SDS011;74605;45.864;11.474;2024-03-08T05:46:39;9.38;;;4.30;;
78027;SDS011;74605;45.864;11.474;2024-03-08T05:49:06;8.70;;;4.07;;
78027;SDS011;74605;45.864;11.474;2024-03-08T05:51:35;9.53;;;4.40;;
78027;SDS011;74605;45.864;11.474;2024-03-08T05:54:03;7.82;;;4.03;;
78027;SDS011;74605;45.864;11.474;2024-03-08T05:56:31;10.32;;;4.10;;
78027;SDS011;74605;45.864;11.474;2024-03-08T05:58:57;9.25;;;4.40;;
78027;SDS011;74605;45.864;11.474;2024-03-08T06:01:24;10.90;;;4.93;;
78027;SDS011;74605;45.864;11.474;2024-03-08T06:03:51;9.33;;;4.00;;
78027;SDS011;74605;45.864;11.474;2024-03-08T06:06:20;11.20;;;4.35;;
78027;SDS011;74605;45.864;11.474;2024-03-08T06:08:47;11.25;;;5.00;;
78027;SDS011;74605;45.864;11.474;2024-03-08T06:11:17;9.88;;;4.30;;
78027;SDS011;74605;45.864;11.474;2024-03-08T06:13:44;9.05;;;4.13;;
78027;SDS011;74605;45.864;11.474;2024-03-08T06:16:11;9.30;;;3.13;;
78027;SDS011;74605;45.864;11.474;2024-03-08T06:18:37;21.13;;;9.07;;
78027;SDS011;74605;45.864;11.474;2024-03-08T06:21:07;12.98;;;5.13;;
78027;SDS011;74605;45.864;11.474;2024-03-08T06:23:37;12.80;;;6.40;;
78027;SDS011;74605;45.864;11.474;2024-03-08T06:26:06;9.45;;;4.18;;
78027;SDS011;74605;45.864;11.474;2024-03-08T06:28:33;9.90;;;4.40;;
78027;SDS011;74605;45.864;11.474;2024-03-08T06:31:02;13.27;;;4.68;;
78027;SDS011;74605;45.864;11.474;2024-03-08T06:33:29;9.50;;;3.70;;
78027;SDS011;74605;45.864;11.474;2024-03-08T06:35:57;11.85;;;4.43;;
78027;SDS011;74605;45.864;11.474;2024-03-08T06:38:23;10.13;;;4.28;;
78027;SDS011;74605;45.864;11.474;2024-03-08T06:40:50;10.90;;;4.87;;
78027;SDS011;74605;45.864;11.474;2024-03-08T06:43:17;18.13;;;6.38;;
78027;SDS011;74605;45.864;11.474;2024-03-08T06:45:44;10.05;;;4.70;;
78027;SDS011;74605;45.864;11.474;2024-03-08T06:48:17;12.13;;;4.57;;
78027;SDS011;74605;45.864;11.474;2024-03-08T06:50:46;15.65;;;7.20;;
78027;SDS011;74605;45.864;11.474;2024-03-08T06:53:12;14.97;;;5.50;;
78027;SDS011;74605;45.864;11.474;2024-03-08T06:55:39;15.32;;;5.82;;
78027;SDS011;74605;45.864;11.474;2024-03-08T06:58:05;10.40;;;4.53;;
78027;SDS011;74605;45.864;11.474;2024-03-08T07:00:36;9.85;;;4.10;;
78027;SDS011;74605;45.864;11.474;2024-03-08T07:03:02;56.53;;;30.48;;
78027;SDS011;74605;45.864;11.474;2024-03-08T07:05:29;55.67;;;24.07;;
78027;SDS011;74605;45.864;11.474;2024-03-08T07:07:55;18.80;;;6.90;;
78027;SDS011;74605;45.864;11.474;2024-03-08T07:10:22;27.00;;;15.30;;
78027;SDS011;74605;45.864;11.474;2024-03-08T07:12:51;17.60;;;6.95;;
78027;SDS011;74605;45.864;11.474;2024-03-08T07:15:20;20.45;;;6.68;;
78027;SDS011;74605;45.864;11.474;2024-03-08T07:17:46;18.20;;;6.23;;
78027;SDS011;74605;45.864;11.474;2024-03-08T07:20:15;43.20;;;18.08;;
78027;SDS011;74605;45.864;11.474;2024-03-08T07:22:44;54.53;;;27.45;;
78027;SDS011;74605;45.864;11.474;2024-03-08T07:25:13;37.22;;;19.58;;
78027;SDS011;74605;45.864;11.474;2024-03-08T07:27:52;164.17;;;27.60;;
78027;SDS011;74605;45.864;11.474;2024-03-08T07:30:23;41.45;;;11.93;;
78027;SDS011;74605;45.864;11.474;2024-03-08T07:33:09;28.15;;;11.18;;
78027;SDS011;74605;45.864;11.474;2024-03-08T07:35:39;60.22;;;10.27;;
78027;SDS011;74605;45.864;11.474;2024-03-08T07:38:08;14.50;;;7.40;;
78027;SDS011;74605;45.864;11.474;2024-03-08T07:40:35;9.30;;;4.40;;
78027;SDS011;74605;45.864;11.474;2024-03-08T07:43:04;30.63;;;4.75;;
78027;SDS011;74605;45.864;11.474;2024-03-08T07:45:30;12.23;;;4.60;;
78027;SDS011;74605;45.864;11.474;2024-03-08T07:47:57;16.73;;;7.60;;
78027;SDS011;74605;45.864;11.474;2024-03-08T07:50:23;10.93;;;5.70;;
78027;SDS011;74605;45.864;11.474;2024-03-08T07:52:49;34.20;;;7.45;;
78027;SDS011;74605;45.864;11.474;2024-03-08T07:55:15;18.30;;;7.75;;
78027;SDS011;74605;45.864;11.474;2024-03-08T07:57:41;17.70;;;8.60;;
78027;SDS011;74605;45.864;11.474;2024-03-08T08:00:07;31.35;;;8.60;;
78027;SDS011;74605;45.864;11.474;2024-03-08T08:02:34;24.58;;;10.98;;
78027;SDS011;74605;45.864;11.474;2024-03-08T08:05:01;13.35;;;6.72;;
78027;SDS011;74605;45.864;11.474;2024-03-08T08:07:27;12.00;;;5.65;;
78027;SDS011;74605;45.864;11.474;2024-03-08T08:09:53;13.63;;;6.30;;
78027;SDS011;74605;45.864;11.474;2024-03-08T08:12:19;11.43;;;5.63;;
78027;SDS011;74605;45.864;11.474;2024-03-08T08:14:46;9.38;;;3.60;;
78027;SDS011;74605;45.864;11.474;2024-03-08T08:17:12;7.38;;;3.20;;
78027;SDS011;74605;45.864;11.474;2024-03-08T08:19:40;5.93;;;2.70;;
78027;SDS011;74605;45.864;11.474;2024-03-08T08:22:06;6.15;;;2.53;;
78027;SDS011;74605;45.864;11.474;2024-03-08T08:24:34;5.43;;;2.35;;
78027;SDS011;74605;45.864;11.474;2024-03-08T08:27:02;6.70;;;2.90;;
78027;SDS011;74605;45.864;11.474;2024-03-08T08:29:28;4.25;;;1.60;;
78027;SDS011;74605;45.864;11.474;2024-03-08T08:31:54;4.50;;;1.57;;
78027;SDS011;74605;45.864;11.474;2024-03-08T08:34:20;6.65;;;2.88;;
78027;SDS011;74605;45.864;11.474;2024-03-08T08:36:49;6.67;;;2.60;;
78027;SDS011;74605;45.864;11.474;2024-03-08T08:39:14;6.20;;;2.88;;
78027;SDS011;74605;45.864;11.474;2024-03-08T08:41:42;5.03;;;2.15;;
78027;SDS011;74605;45.864;11.474;2024-03-08T08:44:08;6.25;;;2.95;;
78027;SDS011;74605;45.864;11.474;2024-03-08T08:46:35;13.97;;;7.90;;
78027;SDS011;74605;45.864;11.474;2024-03-08T08:49:03;6.95;;;2.83;;
78027;SDS011;74605;45.864;11.474;2024-03-08T08:51:30;6.70;;;2.72;;
78027;SDS011;74605;45.864;11.474;2024-03-08T08:53:58;5.57;;;2.47;;
78027;SDS011;74605;45.864;11.474;2024-03-08T08:56:25;5.07;;;2.05;;
78027;SDS011;74605;45.864;11.474;2024-03-08T08:58:51;9.63;;;4.47;;
78027;SDS011;74605;45.864;11.474;2024-03-08T09:01:20;26.98;;;9.48;;
78027;SDS011;74605;45.864;11.474;2024-03-08T09:03:47;10.40;;;4.18;;
78027;SDS011;74605;45.864;11.474;2024-03-08T09:06:15;9.27;;;5.45;;
78027;SDS011;74605;45.864;11.474;2024-03-08T09:08:42;8.13;;;4.93;;
78027;SDS011;74605;45.864;11.474;2024-03-08T09:11:09;14.67;;;7.63;;
78027;SDS011;74605;45.864;11.474;2024-03-08T09:13:35;7.53;;;3.80;;
78027;SDS011;74605;45.864;11.474;2024-03-08T09:16:04;6.45;;;2.85;;
78027;SDS011;74605;45.864;11.474;2024-03-08T09:18:31;7.28;;;2.70;;
78027;SDS011;74605;45.864;11.474;2024-03-08T09:21:00;6.03;;;2.90;;
78027;SDS011;74605;45.864;11.474;2024-03-08T09:23:26;6.22;;;2.92;;
78027;SDS011;74605;45.864;11.474;2024-03-08T09:25:56;7.18;;;3.55;;
78027;SDS011;74605;45.864;11.474;2024-03-08T09:28:23;5.97;;;2.42;;
78027;SDS011;74605;45.864;11.474;2024-03-08T09:30:50;9.48;;;5.57;;
78027;SDS011;74605;45.864;11.474;2024-03-08T09:33:16;14.27;;;6.10;;
78027;SDS011;74605;45.864;11.474;2024-03-08T09:35:47;6.72;;;3.20;;
78027;SDS011;74605;45.864;11.474;2024-03-08T09:38:16;11.35;;;6.15;;
78027;SDS011;74605;45.864;11.474;2024-03-08T09:40:42;6.10;;;2.63;;
78027;SDS011;74605;45.864;11.474;2024-03-08T09:43:08;5.82;;;2.92;;
78027;SDS011;74605;45.864;11.474;2024-03-08T09:45:38;9.27;;;5.28;;
78027;SDS011;74605;45.864;11.474;2024-03-08T09:48:09;9.00;;;4.90;;
78027;SDS011;74605;45.864;11.474;2024-03-08T09:50:40;13.93;;;5.97;;
78027;SDS011;74605;45.864;11.474;2024-03-08T09:53:06;11.40;;;5.18;;
78027;SDS011;74605;45.864;11.474;2024-03-08T09:55:38;10.30;;;4.77;;
78027;SDS011;74605;45.864;11.474;2024-03-08T09:58:13;12.77;;;5.25;;
78027;SDS011;74605;45.864;11.474;2024-03-08T10:00:46;10.07;;;4.50;;
78027;SDS011;74605;45.864;11.474;2024-03-08T10:03:12;12.23;;;5.93;;
78027;SDS011;74605;45.864;11.474;2024-03-08T10:05:40;6.80;;;2.30;;
78027;SDS011;74605;45.864;11.474;2024-03-08T10:08:06;8.57;;;2.83;;
78027;SDS011;74605;45.864;11.474;2024-03-08T10:10:39;14.10;;;8.05;;
78027;SDS011;74605;45.864;11.474;2024-03-08T10:13:08;19.80;;;7.43;;
78027;SDS011;74605;45.864;11.474;2024-03-08T10:15:36;13.48;;;5.35;;
78027;SDS011;74605;45.864;11.474;2024-03-08T10:18:03;9.60;;;3.95;;
78027;SDS011;74605;45.864;11.474;2024-03-08T10:20:30;9.30;;;3.53;;
78027;SDS011;74605;45.864;11.474;2024-03-08T10:23:02;10.73;;;4.68;;
78027;SDS011;74605;45.864;11.474;2024-03-08T10:25:32;25.88;;;12.63;;
78027;SDS011;74605;45.864;11.474;2024-03-08T10:27:59;15.25;;;6.85;;
78027;SDS011;74605;45.864;11.474;2024-03-08T10:30:29;14.60;;;7.65;;
78027;SDS011;74605;45.864;11.474;2024-03-08T10:32:55;10.73;;;5.60;;
78027;SDS011;74605;45.864;11.474;2024-03-08T10:35:21;9.57;;;4.68;;
78027;SDS011;74605;45.864;11.474;2024-03-08T10:37:49;11.07;;;4.82;;
78027;SDS011;74605;45.864;11.474;2024-03-08T10:40:25;10.40;;;5.10;;
78027;SDS011;74605;45.864;11.474;2024-03-08T10:51:03;9.00;;;4.57;;
78027;SDS011;74605;45.864;11.474;2024-03-08T10:53:30;9.40;;;4.88;;
78027;SDS011;74605;45.864;11.474;2024-03-08T10:55:56;15.63;;;9.25;;
78027;SDS011;74605;45.864;11.474;2024-03-08T10:58:24;12.30;;;6.00;;
78027;SDS011;74605;45.864;11.474;2024-03-08T11:00:54;9.77;;;4.78;;
78027;SDS011;74605;45.864;11.474;2024-03-08T11:06:52;9.95;;;4.38;;
78027;SDS011;74605;45.864;11.474;2024-03-08T11:09:01;11.02;;;5.70;;
78027;SDS011;74605;45.864;11.474;2024-03-08T11:11:31;11.33;;;5.83;;
78027;SDS011;74605;45.864;11.474;2024-03-08T11:13:59;11.68;;;5.85;;
78027;SDS011;74605;45.864;11.474;2024-03-08T11:21:59;18.35;;;10.38;;
78027;SDS011;74605;45.864;11.474;2024-03-08T11:24:25;20.60;;;8.63;;
78027;SDS011;74605;45.864;11.474;2024-03-08T11:26:56;13.68;;;6.60;;
78027;SDS011;74605;45.864;11.474;2024-03-08T11:34:47;15.57;;;6.20;;
78027;SDS011;74605;45.864;11.474;2024-03-08T11:37:15;13.73;;;5.97;;
78027;SDS011;74605;45.864;11.474;2024-03-08T11:39:49;10.80;;;5.82;;
78027;SDS011;74605;45.864;11.474;2024-03-08T11:42:17;15.43;;;7.43;;
78027;SDS011;74605;45.864;11.474;2024-03-08T11:44:47;43.43;;;22.17;;
78027;SDS011;74605;45.864;11.474;2024-03-08T11:47:14;43.72;;;20.35;;
78027;SDS011;74605;45.864;11.474;2024-03-08T11:49:41;59.78;;;27.17;;
78027;SDS011;74605;45.864;11.474;2024-03-08T11:52:12;44.95;;;21.08;;
78027;SDS011;74605;45.864;11.474;2024-03-08T11:54:42;26.08;;;14.93;;
78027;SDS011;74605;45.864;11.474;2024-03-08T11:57:17;40.57;;;17.77;;
78027;SDS011;74605;45.864;11.474;2024-03-08T11:59:53;29.85;;;15.02;;
78027;SDS011;74605;45.864;11.474;2024-03-08T12:02:21;26.42;;;12.55;;
78027;SDS011;74605;45.864;11.474;2024-03-08T12:04:55;23.17;;;8.82;;
78027;SDS011;74605;45.864;11.474;2024-03-08T12:07:25;27.38;;;14.73;;
78027;SDS011;74605;45.864;11.474;2024-03-08T12:12:46;20.10;;;9.82;;
78027;SDS011;74605;45.864;11.474;2024-03-08T12:15:16;15.90;;;6.47;;
78027;SDS011;74605;45.864;11.474;2024-03-08T12:17:47;20.77;;;9.77;;
78027;SDS011;74605;45.864;11.474;2024-03-08T12:20:18;17.13;;;8.18;;
78027;SDS011;74605;45.864;11.474;2024-03-08T12:22:56;15.43;;;7.10;;
78027;SDS011;74605;45.864;11.474;2024-03-08T12:25:22;11.95;;;5.15;;
78027;SDS011;74605;45.864;11.474;2024-03-08T12:27:51;13.15;;;5.88;;
78027;SDS011;74605;45.864;11.474;2024-03-08T12:32:49;12.52;;;5.90;;
78027;SDS011;74605;45.864;11.474;2024-03-08T12:35:23;11.77;;;5.50;;
78027;SDS011;74605;45.864;11.474;2024-03-08T12:37:55;15.27;;;9.38;;
78027;SDS011;74605;45.864;11.474;2024-03-08T12:40:28;11.60;;;5.65;;
78027;SDS011;74605;45.864;11.474;2024-03-08T12:42:57;14.70;;;8.57;;
78027;SDS011;74605;45.864;11.474;2024-03-08T12:45:23;12.25;;;6.35;;
78027;SDS011;74605;45.864;11.474;2024-03-08T12:47:50;14.73;;;7.57;;
78027;SDS011;74605;45.864;11.474;2024-03-08T12:50:18;13.93;;;7.20;;
78027;SDS011;74605;45.864;11.474;2024-03-08T12:52:44;9.57;;;5.47;;
78027;SDS011;74605;45.864;11.474;2024-03-08T12:55:10;10.57;;;6.07;;
78027;SDS011;74605;45.864;11.474;2024-03-08T12:57:37;11.47;;;5.80;;
78027;SDS011;74605;45.864;11.474;2024-03-08T13:00:04;18.73;;;10.13;;
78027;SDS011;74605;45.864;11.474;2024-03-08T13:02:30;12.63;;;5.07;;
78027;SDS011;74605;45.864;11.474;2024-03-08T13:04:57;14.45;;;7.38;;
78027;SDS011;74605;45.864;11.474;2024-03-08T13:07:23;13.02;;;6.97;;
78027;SDS011;74605;45.864;11.474;2024-03-08T13:09:54;10.93;;;6.07;;
78027;SDS011;74605;45.864;11.474;2024-03-08T13:12:20;9.90;;;4.90;;
78027;SDS011;74605;45.864;11.474;2024-03-08T13:14:47;9.95;;;4.78;;
78027;SDS011;74605;45.864;11.474;2024-03-08T13:17:15;31.80;;;15.20;;
78027;SDS011;74605;45.864;11.474;2024-03-08T13:19:44;17.20;;;8.23;;
78027;SDS011;74605;45.864;11.474;2024-03-08T13:22:10;27.03;;;11.60;;
78027;SDS011;74605;45.864;11.474;2024-03-08T13:24:38;26.27;;;12.25;;
78027;SDS011;74605;45.864;11.474;2024-03-08T13:27:06;16.85;;;9.10;;
78027;SDS011;74605;45.864;11.474;2024-03-08T13:29:45;12.88;;;6.28;;
78027;SDS011;74605;45.864;11.474;2024-03-08T13:32:12;10.88;;;4.65;;
78027;SDS011;74605;45.864;11.474;2024-03-08T13:34:42;10.23;;;5.77;;
78027;SDS011;74605;45.864;11.474;2024-03-08T13:37:09;19.38;;;10.02;;
78027;SDS011;74605;45.864;11.474;2024-03-08T13:39:37;11.88;;;7.20;;
78027;SDS011;74605;45.864;11.474;2024-03-08T13:42:09;8.13;;;3.90;;
78027;SDS011;74605;45.864;11.474;2024-03-08T13:44:46;7.40;;;4.00;;
78027;SDS011;74605;45.864;11.474;2024-03-08T13:47:13;8.33;;;4.27;;
78027;SDS011;74605;45.864;11.474;2024-03-08T13:49:39;10.02;;;4.40;;
78027;SDS011;74605;45.864;11.474;2024-03-08T13:52:05;8.68;;;3.38;;
78027;SDS011;74605;45.864;11.474;2024-03-08T13:54:33;11.52;;;6.40;;
78027;SDS011;74605;45.864;11.474;2024-03-08T13:57:00;8.37;;;4.10;;
78027;SDS011;74605;45.864;11.474;2024-03-08T13:59:29;9.43;;;4.00;;
78027;SDS011;74605;45.864;11.474;2024-03-08T14:02:01;8.50;;;3.88;;
78027;SDS011;74605;45.864;11.474;2024-03-08T14:04:28;8.80;;;4.50;;
78027;SDS011;74605;45.864;11.474;2024-03-08T14:06:54;12.45;;;3.60;;
78027;SDS011;74605;45.864;11.474;2024-03-08T14:09:24;9.77;;;4.20;;
78027;SDS011;74605;45.864;11.474;2024-03-08T14:11:54;10.25;;;4.55;;
78027;SDS011;74605;45.864;11.474;2024-03-08T14:14:23;15.13;;;6.20;;
78027;SDS011;74605;45.864;11.474;2024-03-08T14:16:49;10.80;;;5.07;;
78027;SDS011;74605;45.864;11.474;2024-03-08T14:19:19;12.27;;;4.90;;
78027;SDS011;74605;45.864;11.474;2024-03-08T14:21:46;9.40;;;3.70;;
78027;SDS011;74605;45.864;11.474;2024-03-08T14:24:16;8.45;;;3.85;;
78027;SDS011;74605;45.864;11.474;2024-03-08T14:26:43;11.35;;;5.90;;
78027;SDS011;74605;45.864;11.474;2024-03-08T14:29:10;9.82;;;5.10;;
78027;SDS011;74605;45.864;11.474;2024-03-08T14:31:36;14.65;;;6.88;;
78027;SDS011;74605;45.864;11.474;2024-03-08T14:34:03;13.07;;;6.03;;
78027;SDS011;74605;45.864;11.474;2024-03-08T14:36:29;7.50;;;3.78;;
78027;SDS011;74605;45.864;11.474;2024-03-08T14:38:55;9.93;;;3.63;;
78027;SDS011;74605;45.864;11.474;2024-03-08T14:41:21;7.20;;;3.17;;
78027;SDS011;74605;45.864;11.474;2024-03-08T14:43:47;8.35;;;4.07;;
78027;SDS011;74605;45.864;11.474;2024-03-08T14:46:14;8.32;;;3.58;;
78027;SDS011;74605;45.864;11.474;2024-03-08T14:48:46;7.18;;;3.08;;
78027;SDS011;74605;45.864;11.474;2024-03-08T14:51:13;8.38;;;4.50;;
78027;SDS011;74605;45.864;11.474;2024-03-08T14:53:42;8.63;;;4.73;;
78027;SDS011;74605;45.864;11.474;2024-03-08T14:56:10;11.20;;;4.18;;
78027;SDS011;74605;45.864;11.474;2024-03-08T14:58:45;8.85;;;4.50;;